Pagrindinis puslapis
METAR-TAF:

METAR-TAF

Oro uostai :

Chitose, Japonija

platuma: 42-48N, ilguma: 141-40E, Aukštis: 27 m

Dabartinis oras

Ataskaita buvo paskelbta 51 minutes, ne 05:30 UTC
Vėjas 15 kt iš Šiaurės
Temperatūra 25°C
Drėgmė 39%
Slėgis 1007 hPa
Matomumas 10 km arba daugiau
Mažai debesys ne aukštis 2500 ft

METAR: RJCC 190530Z 01015KT 9999 FEW025 25/10 Q1007 RMK 1CU025 A2974

Laikas: 15:21 (06:21 UTC)

Prognozė

Ataskaita buvo paskelbta 1 valandą ir 16 minutes, ne 05:05 UTC
Prognozė galioja nuo 19 metu 06 UTC su 20 metu 12 UTC
Vėjas 18 kt iš Šiaurės
Matomumas 10 km arba daugiau
Mažai debesys ne aukštis 3000 ft
Išsisklaidę debesys ne aukštis 5000 ft
Tapsmas
nuo 19 metu 08 UTC su 19 metu 10 UTC
Vėjas 8 kt iš Šiaurės
Tapsmas
nuo 19 metu 16 UTC su 19 metu 18 UTC
Vėjas 4 kt iš Pietų
Tapsmas
nuo 20 metu 00 UTC su 20 metu 03 UTC
Vėjas 15 kt iš Pietų

TAF: RJCC 190505Z 1906/2012 35018KT 9999 FEW030 SCT050 BECMG 1908/1910 35008KT BECMG 1916/1918 17004KT BECMG 2000/2003 17015KT

Orai ataskaitas ir orų prognozės (METAR, TAF).

turimą stotys yra geltonos ir raudonos taškus žemėlapyje.

Perkelti pele per norėdami pamatyti stoties vardą.

Tada spustelėkite, norėdami matyti oro stebėjimo ir prognozės.

Norėdami pakeisti žemėlapį: spustelėkite ant žalios mygtukų su juodo kryžiaus žemyn,; žalią mygtuką su brūkšneliu, jei norite nutolinti; arba žalių rodyklių gretimoms žemėlapius.


METAR-TAF: